CheckWX is a tool to help pilots better visualize weather data.  It is not intended as a substitute for an official pre-flight weather briefing.

19:28:43 UTC

KBAD TAF
Barksdale AFB Airport
Bossier City, Louisiana, USA
TAF KBAD 191800Z 1918/2024 20012G18KT 9999 FEW040 BKN250 QNH2971INS BECMG 2001/2002 18010KT 9999 BKN250 QNH2970INS BECMG 2004/2005 17010KT 9000 -SHRA VCTS BKN020CB OVC120 QNH2970INS BECMG 2012/2013 18012KT 9999 NSW OVC015 QNH2971INS BECMG 2016/2017 21012KT 9999 SCT040 BKN120 QNH2970INS TX33/1921Z TN23/2011Z

Jun-19@
18:00 UTC

Jun-19 @ 18:00 UTC

Jun-20@
01:00 UTC

Jun-20 @ 01:00 UTC

TAF KBAD 191800Z 1918/2024 20012G18KT 9999 FEW040 BKN250 QNH2971INS
Wind
  • 200° at 12 KTS
  • {Gusting to 18 KTS
Cloud Levels
  • Few at 4,000' AGL
  • Broken at 25,000' AGL

Jun-20@
01:00 UTC

Jun-20 @ 01:00 UTC

Jun-20@
04:00 UTC

Jun-20 @ 04:00 UTC

BECMG 2001/2002 18010KT 9999 BKN250 QNH2970INS

Becoming

Becoming Conditions expected by Thu, Jun 20, 2019 @ 02:00 UTC

Wind
  • 180° at 10 KTS
Cloud Levels
  • Broken at 25,000' AGL

Jun-20@
04:00 UTC

Jun-20 @ 04:00 UTC

Jun-20@
12:00 UTC

Jun-20 @ 12:00 UTC

BECMG 2004/2005 17010KT 9000 -SHRA VCTS BKN020CB OVC120 QNH2970INS

Becoming

Becoming Conditions expected by Thu, Jun 20, 2019 @ 05:00 UTC

Wind
  • 170° at 10 KTS
Conditions
Light Rain, Area Thunderstorm
Cloud Levels
  • Broken at 2,000' AGL
  • Overcast at 12,000' AGL

Jun-20@
12:00 UTC

Jun-20 @ 12:00 UTC

Jun-20@
16:00 UTC

Jun-20 @ 16:00 UTC

BECMG 2012/2013 18012KT 9999 NSW OVC015 QNH2971INS

Becoming

Becoming Conditions expected by Thu, Jun 20, 2019 @ 13:00 UTC

Wind
  • 180° at 12 KTS
Conditions
No significant weather
Cloud Levels
  • Overcast at 1,500' AGL

Jun-20@
16:00 UTC

Jun-20 @ 16:00 UTC

Jun-21@
00:00 UTC

Jun-21 @ 00:00 UTC

BECMG 2016/2017 21012KT 9999 SCT040 BKN120 QNH2970INS TX33/1921Z TN23/2011Z

Becoming

Becoming Conditions expected by Thu, Jun 20, 2019 @ 17:00 UTC

Wind
  • 210° at 12 KTS
Conditions
No significant weather
Cloud Levels
  • Scattered at 4,000' AGL
  • Broken at 12,000' AGL